sensor_id;sensor_type;location;lat;lon;timestamp;P1;durP1;ratioP1;P2;durP2;ratioP2
20593;SDS011;10455;48.732;10.266;2022-10-20T00:03:24;36.07;;;26.87;;
20593;SDS011;10455;48.732;10.266;2022-10-20T00:08:27;40.17;;;29.63;;
20593;SDS011;10455;48.732;10.266;2022-10-20T00:13:31;35.17;;;27.33;;
20593;SDS011;10455;48.732;10.266;2022-10-20T00:18:33;36.23;;;26.87;;
20593;SDS011;10455;48.732;10.266;2022-10-20T00:23:36;31.87;;;23.37;;
20593;SDS011;10455;48.732;10.266;2022-10-20T00:28:39;27.93;;;21.37;;
20593;SDS011;10455;48.732;10.266;2022-10-20T00:33:42;29.73;;;22.40;;
20593;SDS011;10455;48.732;10.266;2022-10-20T00:38:45;27.30;;;22.20;;
20593;SDS011;10455;48.732;10.266;2022-10-20T00:43:50;31.37;;;24.57;;
20593;SDS011;10455;48.732;10.266;2022-10-20T00:48:54;31.03;;;24.40;;
20593;SDS011;10455;48.732;10.266;2022-10-20T00:54:01;28.13;;;23.03;;
20593;SDS011;10455;48.732;10.266;2022-10-20T00:59:08;31.60;;;23.83;;
20593;SDS011;10455;48.732;10.266;2022-10-20T01:04:12;29.40;;;22.77;;
20593;SDS011;10455;48.732;10.266;2022-10-20T01:09:15;29.60;;;24.67;;
20593;SDS011;10455;48.732;10.266;2022-10-20T01:14:23;30.73;;;25.07;;
20593;SDS011;10455;48.732;10.266;2022-10-20T01:19:40;31.83;;;25.80;;
20593;SDS011;10455;48.732;10.266;2022-10-20T01:25:14;32.40;;;24.57;;
20593;SDS011;10455;48.732;10.266;2022-10-20T01:30:21;33.87;;;25.53;;
20593;SDS011;10455;48.732;10.266;2022-10-20T01:35:27;32.33;;;25.03;;
20593;SDS011;10455;48.732;10.266;2022-10-20T01:40:40;36.57;;;25.47;;
20593;SDS011;10455;48.732;10.266;2022-10-20T01:45:47;38.70;;;28.23;;
20593;SDS011;10455;48.732;10.266;2022-10-20T01:50:51;46.33;;;30.33;;
20593;SDS011;10455;48.732;10.266;2022-10-20T01:55:54;52.63;;;33.27;;
20593;SDS011;10455;48.732;10.266;2022-10-20T02:01:00;51.93;;;34.03;;
20593;SDS011;10455;48.732;10.266;2022-10-20T02:06:10;63.77;;;39.10;;
20593;SDS011;10455;48.732;10.266;2022-10-20T02:11:22;80.30;;;41.07;;
20593;SDS011;10455;48.732;10.266;2022-10-20T02:16:31;63.47;;;36.70;;
20593;SDS011;10455;48.732;10.266;2022-10-20T02:21:36;78.43;;;41.57;;
20593;SDS011;10455;48.732;10.266;2022-10-20T02:26:39;108.30;;;44.97;;
20593;SDS011;10455;48.732;10.266;2022-10-20T02:31:43;89.80;;;40.50;;
20593;SDS011;10455;48.732;10.266;2022-10-20T02:36:46;90.17;;;43.17;;
20593;SDS011;10455;48.732;10.266;2022-10-20T02:41:48;127.27;;;47.03;;
20593;SDS011;10455;48.732;10.266;2022-10-20T02:46:52;78.73;;;38.97;;
20593;SDS011;10455;48.732;10.266;2022-10-20T02:51:54;72.77;;;38.77;;
20593;SDS011;10455;48.732;10.266;2022-10-20T02:56:56;87.03;;;41.20;;
20593;SDS011;10455;48.732;10.266;2022-10-20T03:02:00;88.37;;;42.57;;
20593;SDS011;10455;48.732;10.266;2022-10-20T03:07:02;111.47;;;43.30;;
20593;SDS011;10455;48.732;10.266;2022-10-20T03:12:04;103.93;;;43.50;;
20593;SDS011;10455;48.732;10.266;2022-10-20T03:17:08;79.50;;;43.47;;
20593;SDS011;10455;48.732;10.266;2022-10-20T03:22:10;110.70;;;48.63;;
20593;SDS011;10455;48.732;10.266;2022-10-20T03:27:12;135.77;;;50.37;;
20593;SDS011;10455;48.732;10.266;2022-10-20T03:32:16;122.13;;;50.07;;
20593;SDS011;10455;48.732;10.266;2022-10-20T03:37:18;116.57;;;46.87;;
20593;SDS011;10455;48.732;10.266;2022-10-20T03:42:20;104.20;;;51.07;;
20593;SDS011;10455;48.732;10.266;2022-10-20T03:47:23;103.80;;;47.10;;
20593;SDS011;10455;48.732;10.266;2022-10-20T03:52:26;79.10;;;41.40;;
20593;SDS011;10455;48.732;10.266;2022-10-20T03:57:28;109.10;;;50.70;;
20593;SDS011;10455;48.732;10.266;2022-10-20T04:02:32;125.27;;;53.17;;
20593;SDS011;10455;48.732;10.266;2022-10-20T04:07:36;97.53;;;45.70;;
20593;SDS011;10455;48.732;10.266;2022-10-20T04:12:38;91.20;;;48.37;;
20593;SDS011;10455;48.732;10.266;2022-10-20T04:17:42;83.17;;;44.30;;
20593;SDS011;10455;48.732;10.266;2022-10-20T04:22:44;99.67;;;48.57;;
20593;SDS011;10455;48.732;10.266;2022-10-20T04:27:46;113.33;;;50.93;;
20593;SDS011;10455;48.732;10.266;2022-10-20T04:32:49;83.03;;;45.57;;
20593;SDS011;10455;48.732;10.266;2022-10-20T04:37:53;110.43;;;48.67;;
20593;SDS011;10455;48.732;10.266;2022-10-20T04:42:55;122.33;;;51.03;;
20593;SDS011;10455;48.732;10.266;2022-10-20T04:48:00;166.97;;;58.20;;
20593;SDS011;10455;48.732;10.266;2022-10-20T04:53:05;111.87;;;49.23;;
20593;SDS011;10455;48.732;10.266;2022-10-20T04:58:07;67.93;;;42.13;;
20593;SDS011;10455;48.732;10.266;2022-10-20T05:03:11;93.93;;;47.20;;
20593;SDS011;10455;48.732;10.266;2022-10-20T05:08:13;96.77;;;47.27;;
20593;SDS011;10455;48.732;10.266;2022-10-20T05:13:15;85.97;;;43.73;;
20593;SDS011;10455;48.732;10.266;2022-10-20T05:18:18;100.70;;;47.90;;
20593;SDS011;10455;48.732;10.266;2022-10-20T05:23:21;109.60;;;47.37;;
20593;SDS011;10455;48.732;10.266;2022-10-20T05:28:23;102.53;;;42.00;;
20593;SDS011;10455;48.732;10.266;2022-10-20T05:33:26;78.80;;;41.97;;
20593;SDS011;10455;48.732;10.266;2022-10-20T05:38:29;96.50;;;44.93;;
20593;SDS011;10455;48.732;10.266;2022-10-20T05:43:31;149.73;;;49.93;;
20593;SDS011;10455;48.732;10.266;2022-10-20T05:48:34;112.10;;;48.00;;
20593;SDS011;10455;48.732;10.266;2022-10-20T05:53:36;84.20;;;42.13;;
20593;SDS011;10455;48.732;10.266;2022-10-20T05:58:39;128.97;;;47.53;;
20593;SDS011;10455;48.732;10.266;2022-10-20T06:03:45;95.07;;;45.13;;
20593;SDS011;10455;48.732;10.266;2022-10-20T06:08:48;249.67;;;59.37;;
20593;SDS011;10455;48.732;10.266;2022-10-20T06:13:50;199.67;;;54.77;;
20593;SDS011;10455;48.732;10.266;2022-10-20T06:18:55;139.40;;;51.93;;
20593;SDS011;10455;48.732;10.266;2022-10-20T06:23:58;124.27;;;49.87;;
20593;SDS011;10455;48.732;10.266;2022-10-20T06:29:03;99.00;;;42.33;;
20593;SDS011;10455;48.732;10.266;2022-10-20T06:34:09;84.27;;;42.23;;
20593;SDS011;10455;48.732;10.266;2022-10-20T06:39:14;83.97;;;41.37;;
20593;SDS011;10455;48.732;10.266;2022-10-20T06:44:18;181.63;;;50.43;;
20593;SDS011;10455;48.732;10.266;2022-10-20T06:49:22;185.43;;;46.57;;
20593;SDS011;10455;48.732;10.266;2022-10-20T06:54:24;147.80;;;47.83;;
20593;SDS011;10455;48.732;10.266;2022-10-20T06:59:26;73.63;;;37.50;;
20593;SDS011;10455;48.732;10.266;2022-10-20T07:04:30;84.03;;;35.60;;
20593;SDS011;10455;48.732;10.266;2022-10-20T07:09:32;158.30;;;41.30;;
20593;SDS011;10455;48.732;10.266;2022-10-20T07:14:34;120.17;;;43.60;;
20593;SDS011;10455;48.732;10.266;2022-10-20T07:19:38;112.13;;;40.80;;
20593;SDS011;10455;48.732;10.266;2022-10-20T07:24:40;101.30;;;38.20;;
20593;SDS011;10455;48.732;10.266;2022-10-20T07:29:42;120.27;;;40.90;;
20593;SDS011;10455;48.732;10.266;2022-10-20T07:34:45;118.17;;;39.13;;
20593;SDS011;10455;48.732;10.266;2022-10-20T07:39:47;110.53;;;39.17;;
20593;SDS011;10455;48.732;10.266;2022-10-20T07:44:49;65.63;;;36.90;;
20593;SDS011;10455;48.732;10.266;2022-10-20T07:49:53;58.50;;;29.43;;
20593;SDS011;10455;48.732;10.266;2022-10-20T07:54:55;88.80;;;36.23;;
20593;SDS011;10455;48.732;10.266;2022-10-20T07:59:58;69.47;;;37.57;;
20593;SDS011;10455;48.732;10.266;2022-10-20T08:05:01;71.13;;;32.17;;
20593;SDS011;10455;48.732;10.266;2022-10-20T08:10:05;165.60;;;43.07;;
20593;SDS011;10455;48.732;10.266;2022-10-20T08:15:07;36.70;;;28.67;;
20593;SDS011;10455;48.732;10.266;2022-10-20T08:20:12;73.37;;;28.60;;
20593;SDS011;10455;48.732;10.266;2022-10-20T08:25:14;121.73;;;34.07;;
20593;SDS011;10455;48.732;10.266;2022-10-20T08:30:16;37.20;;;24.67;;
20593;SDS011;10455;48.732;10.266;2022-10-20T08:35:20;69.33;;;28.20;;
20593;SDS011;10455;48.732;10.266;2022-10-20T08:40:23;150.90;;;38.00;;
20593;SDS011;10455;48.732;10.266;2022-10-20T08:45:27;113.30;;;25.53;;
20593;SDS011;10455;48.732;10.266;2022-10-20T08:50:30;61.70;;;27.67;;
20593;SDS011;10455;48.732;10.266;2022-10-20T08:55:33;166.70;;;36.70;;
20593;SDS011;10455;48.732;10.266;2022-10-20T09:00:36;27.60;;;24.23;;
20593;SDS011;10455;48.732;10.266;2022-10-20T09:05:40;55.00;;;23.57;;
20593;SDS011;10455;48.732;10.266;2022-10-20T09:10:46;96.23;;;28.80;;
20593;SDS011;10455;48.732;10.266;2022-10-20T09:15:52;150.43;;;31.87;;
20593;SDS011;10455;48.732;10.266;2022-10-20T09:21:01;81.67;;;23.23;;
20593;SDS011;10455;48.732;10.266;2022-10-20T09:26:09;84.77;;;22.67;;
20593;SDS011;10455;48.732;10.266;2022-10-20T09:31:21;28.73;;;19.63;;
20593;SDS011;10455;48.732;10.266;2022-10-20T09:36:27;33.70;;;21.07;;
20593;SDS011;10455;48.732;10.266;2022-10-20T09:41:31;289.47;;;41.47;;
20593;SDS011;10455;48.732;10.266;2022-10-20T09:46:36;37.00;;;23.03;;
20593;SDS011;10455;48.732;10.266;2022-10-20T09:51:46;53.30;;;21.97;;
20593;SDS011;10455;48.732;10.266;2022-10-20T09:56:49;63.60;;;21.60;;
20593;SDS011;10455;48.732;10.266;2022-10-20T10:01:52;26.47;;;20.97;;
20593;SDS011;10455;48.732;10.266;2022-10-20T10:06:57;47.77;;;24.87;;
20593;SDS011;10455;48.732;10.266;2022-10-20T10:12:00;30.03;;;19.83;;
20593;SDS011;10455;48.732;10.266;2022-10-20T10:17:04;19.13;;;17.20;;
20593;SDS011;10455;48.732;10.266;2022-10-20T10:22:10;25.73;;;19.77;;
20593;SDS011;10455;48.732;10.266;2022-10-20T10:27:21;19.83;;;17.70;;
20593;SDS011;10455;48.732;10.266;2022-10-20T10:32:25;36.13;;;20.63;;
20593;SDS011;10455;48.732;10.266;2022-10-20T10:37:30;28.80;;;21.47;;
20593;SDS011;10455;48.732;10.266;2022-10-20T10:42:38;27.87;;;18.03;;
20593;SDS011;10455;48.732;10.266;2022-10-20T10:48:04;31.03;;;20.13;;
20593;SDS011;10455;48.732;10.266;2022-10-20T10:53:33;21.15;;;17.63;;
20593;SDS011;10455;48.732;10.266;2022-10-20T10:58:45;21.38;;;16.73;;
20593;SDS011;10455;48.732;10.266;2022-10-20T11:04:00;36.30;;;17.48;;
20593;SDS011;10455;48.732;10.266;2022-10-20T11:09:29;19.67;;;17.52;;
20593;SDS011;10455;48.732;10.266;2022-10-20T11:14:39;36.33;;;23.58;;
20593;SDS011;10455;48.732;10.266;2022-10-20T11:19:55;23.38;;;18.38;;
20593;SDS011;10455;48.732;10.266;2022-10-20T11:25:13;22.02;;;17.52;;
20593;SDS011;10455;48.732;10.266;2022-10-20T11:30:26;17.92;;;16.13;;
20593;SDS011;10455;48.732;10.266;2022-10-20T11:35:32;18.77;;;16.88;;
20593;SDS011;10455;48.732;10.266;2022-10-20T11:40:42;16.73;;;15.13;;
20593;SDS011;10455;48.732;10.266;2022-10-20T11:45:50;18.83;;;16.20;;
20593;SDS011;10455;48.732;10.266;2022-10-20T11:51:00;18.98;;;16.60;;
20593;SDS011;10455;48.732;10.266;2022-10-20T11:56:33;23.05;;;17.92;;
20593;SDS011;10455;48.732;10.266;2022-10-20T12:02:11;19.42;;;17.50;;
20593;SDS011;10455;48.732;10.266;2022-10-20T12:07:39;21.52;;;19.17;;
20593;SDS011;10455;48.732;10.266;2022-10-20T12:13:00;23.05;;;20.35;;
20593;SDS011;10455;48.732;10.266;2022-10-20T12:18:23;23.83;;;20.73;;
20593;SDS011;10455;48.732;10.266;2022-10-20T12:28:55;25.70;;;22.35;;
20593;SDS011;10455;48.732;10.266;2022-10-20T12:33:58;23.50;;;21.00;;
20593;SDS011;10455;48.732;10.266;2022-10-20T12:39:07;24.77;;;20.43;;
20593;SDS011;10455;48.732;10.266;2022-10-20T12:44:20;22.20;;;19.90;;
20593;SDS011;10455;48.732;10.266;2022-10-20T12:49:25;29.80;;;25.40;;
20593;SDS011;10455;48.732;10.266;2022-10-20T12:54:32;28.15;;;24.73;;
20593;SDS011;10455;48.732;10.266;2022-10-20T12:59:40;24.73;;;21.97;;
20593;SDS011;10455;48.732;10.266;2022-10-20T13:04:52;24.42;;;21.25;;
20593;SDS011;10455;48.732;10.266;2022-10-20T13:09:55;21.30;;;19.17;;
20593;SDS011;10455;48.732;10.266;2022-10-20T13:15:02;21.23;;;19.08;;
20593;SDS011;10455;48.732;10.266;2022-10-20T13:20:17;20.52;;;17.50;;
20593;SDS011;10455;48.732;10.266;2022-10-20T13:25:35;22.88;;;20.48;;
20593;SDS011;10455;48.732;10.266;2022-10-20T13:30:46;25.40;;;22.73;;
20593;SDS011;10455;48.732;10.266;2022-10-20T13:36:07;21.55;;;19.40;;
20593;SDS011;10455;48.732;10.266;2022-10-20T13:41:16;29.10;;;23.47;;
20593;SDS011;10455;48.732;10.266;2022-10-20T13:46:31;26.25;;;22.40;;
20593;SDS011;10455;48.732;10.266;2022-10-20T13:51:43;34.13;;;28.00;;
20593;SDS011;10455;48.732;10.266;2022-10-20T13:56:48;44.60;;;34.37;;
20593;SDS011;10455;48.732;10.266;2022-10-20T14:01:53;37.10;;;30.90;;
20593;SDS011;10455;48.732;10.266;2022-10-20T14:07:00;34.85;;;28.10;;
20593;SDS011;10455;48.732;10.266;2022-10-20T14:12:04;37.93;;;30.27;;
20593;SDS011;10455;48.732;10.266;2022-10-20T14:17:14;36.30;;;30.97;;
20593;SDS011;10455;48.732;10.266;2022-10-20T14:22:20;34.40;;;29.57;;
20593;SDS011;10455;48.732;10.266;2022-10-20T14:27:23;30.58;;;25.75;;
20593;SDS011;10455;48.732;10.266;2022-10-20T14:32:30;28.13;;;25.10;;
20593;SDS011;10455;48.732;10.266;2022-10-20T14:37:36;27.13;;;22.98;;
20593;SDS011;10455;48.732;10.266;2022-10-20T14:42:45;35.28;;;29.95;;
20593;SDS011;10455;48.732;10.266;2022-10-20T14:47:48;32.07;;;27.30;;
20593;SDS011;10455;48.732;10.266;2022-10-20T14:52:52;33.27;;;28.97;;
20593;SDS011;10455;48.732;10.266;2022-10-20T14:57:54;31.70;;;27.90;;
20593;SDS011;10455;48.732;10.266;2022-10-20T15:02:58;31.03;;;26.47;;
20593;SDS011;10455;48.732;10.266;2022-10-20T15:08:06;31.87;;;27.90;;
20593;SDS011;10455;48.732;10.266;2022-10-20T15:13:21;31.40;;;28.00;;
20593;SDS011;10455;48.732;10.266;2022-10-20T15:18:28;30.97;;;26.87;;
20593;SDS011;10455;48.732;10.266;2022-10-20T15:23:30;31.37;;;26.50;;
20593;SDS011;10455;48.732;10.266;2022-10-20T15:28:36;33.70;;;29.20;;
20593;SDS011;10455;48.732;10.266;2022-10-20T15:33:41;35.40;;;29.97;;
20593;SDS011;10455;48.732;10.266;2022-10-20T15:38:43;39.10;;;30.60;;
20593;SDS011;10455;48.732;10.266;2022-10-20T15:43:45;37.17;;;30.40;;
20593;SDS011;10455;48.732;10.266;2022-10-20T15:48:49;39.07;;;32.70;;
20593;SDS011;10455;48.732;10.266;2022-10-20T15:53:51;42.40;;;35.27;;
20593;SDS011;10455;48.732;10.266;2022-10-20T15:58:53;35.43;;;30.33;;
20593;SDS011;10455;48.732;10.266;2022-10-20T16:03:57;40.17;;;31.43;;
20593;SDS011;10455;48.732;10.266;2022-10-20T16:09:01;41.93;;;34.03;;
20593;SDS011;10455;48.732;10.266;2022-10-20T16:14:04;37.53;;;31.67;;
20593;SDS011;10455;48.732;10.266;2022-10-20T16:19:07;34.97;;;29.80;;
20593;SDS011;10455;48.732;10.266;2022-10-20T16:24:10;33.47;;;29.53;;
20593;SDS011;10455;48.732;10.266;2022-10-20T16:29:12;42.63;;;31.63;;
20593;SDS011;10455;48.732;10.266;2022-10-20T16:34:15;39.77;;;31.37;;
20593;SDS011;10455;48.732;10.266;2022-10-20T16:39:17;39.37;;;31.47;;
20593;SDS011;10455;48.732;10.266;2022-10-20T16:44:19;46.67;;;34.47;;
20593;SDS011;10455;48.732;10.266;2022-10-20T16:49:23;43.73;;;34.63;;
20593;SDS011;10455;48.732;10.266;2022-10-20T16:54:25;52.43;;;39.80;;
20593;SDS011;10455;48.732;10.266;2022-10-20T16:59:28;56.03;;;40.93;;
20593;SDS011;10455;48.732;10.266;2022-10-20T17:04:32;53.63;;;40.03;;
20593;SDS011;10455;48.732;10.266;2022-10-20T17:09:34;47.33;;;36.07;;
20593;SDS011;10455;48.732;10.266;2022-10-20T17:14:36;53.03;;;39.37;;
20593;SDS011;10455;48.732;10.266;2022-10-20T17:19:41;42.07;;;32.27;;
20593;SDS011;10455;48.732;10.266;2022-10-20T17:24:44;45.23;;;35.20;;
20593;SDS011;10455;48.732;10.266;2022-10-20T17:29:46;39.80;;;31.63;;
20593;SDS011;10455;48.732;10.266;2022-10-20T17:34:49;40.20;;;32.20;;
20593;SDS011;10455;48.732;10.266;2022-10-20T17:39:51;39.87;;;31.17;;
20593;SDS011;10455;48.732;10.266;2022-10-20T17:44:53;44.83;;;32.60;;
20593;SDS011;10455;48.732;10.266;2022-10-20T17:49:57;41.13;;;33.83;;
20593;SDS011;10455;48.732;10.266;2022-10-20T17:54:59;44.10;;;34.37;;
20593;SDS011;10455;48.732;10.266;2022-10-20T18:00:01;39.93;;;31.60;;
20593;SDS011;10455;48.732;10.266;2022-10-20T18:05:06;44.60;;;32.13;;
20593;SDS011;10455;48.732;10.266;2022-10-20T18:10:08;45.23;;;34.53;;
20593;SDS011;10455;48.732;10.266;2022-10-20T18:15:11;52.20;;;38.03;;
20593;SDS011;10455;48.732;10.266;2022-10-20T18:20:14;62.87;;;49.80;;
20593;SDS011;10455;48.732;10.266;2022-10-20T18:25:16;64.83;;;46.97;;
20593;SDS011;10455;48.732;10.266;2022-10-20T18:30:19;61.10;;;44.17;;
20593;SDS011;10455;48.732;10.266;2022-10-20T18:35:22;75.17;;;51.10;;
20593;SDS011;10455;48.732;10.266;2022-10-20T18:40:25;49.97;;;34.83;;
20593;SDS011;10455;48.732;10.266;2022-10-20T18:45:27;53.77;;;37.27;;
20593;SDS011;10455;48.732;10.266;2022-10-20T18:50:31;62.37;;;42.70;;
20593;SDS011;10455;48.732;10.266;2022-10-20T18:55:33;53.77;;;38.73;;
20593;SDS011;10455;48.732;10.266;2022-10-20T19:00:35;62.60;;;42.20;;
20593;SDS011;10455;48.732;10.266;2022-10-20T19:05:39;61.00;;;41.40;;
20593;SDS011;10455;48.732;10.266;2022-10-20T19:10:41;56.53;;;40.27;;
20593;SDS011;10455;48.732;10.266;2022-10-20T19:15:43;60.03;;;41.93;;
20593;SDS011;10455;48.732;10.266;2022-10-20T19:20:53;62.23;;;44.07;;
20593;SDS011;10455;48.732;10.266;2022-10-20T19:26:02;51.77;;;38.40;;
20593;SDS011;10455;48.732;10.266;2022-10-20T19:31:10;56.60;;;40.97;;
20593;SDS011;10455;48.732;10.266;2022-10-20T19:36:16;49.37;;;35.37;;
20593;SDS011;10455;48.732;10.266;2022-10-20T19:41:18;52.93;;;38.13;;
20593;SDS011;10455;48.732;10.266;2022-10-20T19:46:21;51.60;;;38.40;;
20593;SDS011;10455;48.732;10.266;2022-10-20T19:51:24;58.63;;;41.60;;
20593;SDS011;10455;48.732;10.266;2022-10-20T19:56:27;56.67;;;40.50;;
20593;SDS011;10455;48.732;10.266;2022-10-20T20:01:29;70.60;;;49.80;;
20593;SDS011;10455;48.732;10.266;2022-10-20T20:06:33;55.70;;;39.50;;
20593;SDS011;10455;48.732;10.266;2022-10-20T20:11:36;50.93;;;36.67;;
20593;SDS011;10455;48.732;10.266;2022-10-20T20:16:39;49.77;;;37.60;;
20593;SDS011;10455;48.732;10.266;2022-10-20T20:21:43;46.33;;;35.13;;
20593;SDS011;10455;48.732;10.266;2022-10-20T20:26:45;40.07;;;33.30;;
20593;SDS011;10455;48.732;10.266;2022-10-20T20:31:49;43.67;;;33.67;;
20593;SDS011;10455;48.732;10.266;2022-10-20T20:36:52;50.37;;;34.97;;
20593;SDS011;10455;48.732;10.266;2022-10-20T20:41:54;47.60;;;35.63;;
20593;SDS011;10455;48.732;10.266;2022-10-20T20:46:57;53.73;;;38.30;;
20593;SDS011;10455;48.732;10.266;2022-10-20T20:52:00;49.83;;;38.80;;
20593;SDS011;10455;48.732;10.266;2022-10-20T20:57:02;54.03;;;38.97;;
20593;SDS011;10455;48.732;10.266;2022-10-20T21:02:05;52.10;;;38.43;;
20593;SDS011;10455;48.732;10.266;2022-10-20T21:07:08;63.67;;;43.87;;
20593;SDS011;10455;48.732;10.266;2022-10-20T21:12:11;61.53;;;43.33;;
20593;SDS011;10455;48.732;10.266;2022-10-20T21:17:14;54.13;;;39.63;;
20593;SDS011;10455;48.732;10.266;2022-10-20T21:22:17;54.40;;;39.77;;
20593;SDS011;10455;48.732;10.266;2022-10-20T21:27:19;59.13;;;40.47;;
20593;SDS011;10455;48.732;10.266;2022-10-20T21:32:21;55.27;;;38.80;;
20593;SDS011;10455;48.732;10.266;2022-10-20T21:37:25;63.07;;;42.10;;
20593;SDS011;10455;48.732;10.266;2022-10-20T21:42:28;49.30;;;35.53;;
20593;SDS011;10455;48.732;10.266;2022-10-20T21:47:30;57.50;;;38.97;;
20593;SDS011;10455;48.732;10.266;2022-10-20T21:52:34;55.43;;;39.50;;
20593;SDS011;10455;48.732;10.266;2022-10-20T21:57:37;49.57;;;34.03;;
20593;SDS011;10455;48.732;10.266;2022-10-20T22:38:24;52.50;;;33.13;;
20593;SDS011;10455;48.732;10.266;2022-10-20T22:43:26;45.93;;;32.73;;
20593;SDS011;10455;48.732;10.266;2022-10-20T22:48:28;60.43;;;36.57;;
20593;SDS011;10455;48.732;10.266;2022-10-20T22:53:32;64.40;;;38.70;;
20593;SDS011;10455;48.732;10.266;2022-10-20T22:58:34;61.27;;;38.20;;
20593;SDS011;10455;48.732;10.266;2022-10-20T23:03:36;66.27;;;39.20;;
20593;SDS011;10455;48.732;10.266;2022-10-20T23:08:40;68.77;;;41.07;;
20593;SDS011;10455;48.732;10.266;2022-10-20T23:13:44;101.53;;;44.70;;
20593;SDS011;10455;48.732;10.266;2022-10-20T23:18:47;92.97;;;45.47;;
20593;SDS011;10455;48.732;10.266;2022-10-20T23:23:50;77.70;;;44.87;;
20593;SDS011;10455;48.732;10.266;2022-10-20T23:28:52;80.10;;;44.93;;
20593;SDS011;10455;48.732;10.266;2022-10-20T23:33:54;100.97;;;50.77;;
20593;SDS011;10455;48.732;10.266;2022-10-20T23:38:58;99.83;;;53.17;;
20593;SDS011;10455;48.732;10.266;2022-10-20T23:43:59;99.43;;;52.40;;
20593;SDS011;10455;48.732;10.266;2022-10-20T23:49:02;83.20;;;48.37;;
20593;SDS011;10455;48.732;10.266;2022-10-20T23:54:05;89.17;;;52.37;;
20593;SDS011;10455;48.732;10.266;2022-10-20T23:59:07;87.57;;;50.77;;
